Salem, OR (97303)

1:15 AM PDT on March 27, 2017 (GMT -0700)
Cherry | | Change Station

Elev 135 ft 44.98 °N, 123.02 °W | Updated 19 seconds ago

Overcast
Overcast
46.9 °F
Feels Like 44 °F
N
5.3
Wind Variable Wind from SSE

Today
High -- | Low -- °F
--% Chance of Precip.
Yesterday
High -- | Low -- °F
Precip. -- in
Pressure 29.95 in
Visibility 10.0 miles
Clouds Mostly Cloudy 2800 ft
Mostly Cloudy 4000 ft
Overcast 4900 ft
Windchill 44 °F
Dew Point 46 °F
Humidity 95%
Rainfall 0.00 in
Snow Depth Not available.
7:01 AM 7:33 PM
Waning Crescent, 1% visible
SPECI KSLE 270808Z AUTO 20008KT 10SM BKN028 BKN040 OVC049 08/06 A2995 RMK AO2 T00830061
Pressure 29.95 in
Visibility 10.0 miles
Clouds Mostly Cloudy 2800 ft
Mostly Cloudy 4000 ft
Overcast 4900 ft
Windchill 44 °F
Dew Point 46 °F
Humidity 95%
Rainfall 0.00 in
Snow Depth Not available.
7:01 AM 7:33 PM
Waning Crescent, 1% visible
SPECI KSLE 270808Z AUTO 20008KT 10SM BKN028 BKN040 OVC049 08/06 A2995 RMK AO2 T00830061

Get Severe Weather Alerts

Thanks for signing up!

Be on the lookout for a verification email in your inbox.

You'll start receiving the daily forecast at 8 AM.

×

10-Day Weather Forecast

Almanac

Astronomy

Mar. 27, 2017 Rise Set
Actual Time
Civil Twilight
Nautical Twilight
Astronomical Twilight
Moon
Length of Visible Light
Length of Day
Tomorrow will be .
, % of the Moon is Illuminated

Today's Extremes

State Highs State Lows

Community

WunderPhotos

Upload Photos

1,962,540 photos uploaded!

WunderBlog® & News

Nearby

Air Quality

  Air Quality AQ Index Pollutant
Not available.

Snow Depth

Station Depth Elevation

Earthquake Activity

City Distance Mag. Time & Date
Minimum magnitude displayed is 2.5.

Earthquake Activity

City Distance Mag. Time & Date
Minimum magnitude displayed is 2.5.

Coastal Water Temperatures

Place Temperature

Stations

Nearby Weather Stations

Station Location Temp. Windchill Dew Point Humidity Wind Precip. Elev Updated Type
                   

Watches & Warnings

There are currently no watches in effect.